createdAt,value
2023-04-10T00:00:35.654Z,100699.38
2023-04-10T00:03:03.072Z,100700.31
2023-04-10T00:05:30.342Z,100712.88
2023-04-10T00:07:57.284Z,100711.31
2023-04-10T00:10:26.430Z,100719.53
2023-04-10T00:12:54.154Z,100724.09
2023-04-10T00:15:21.386Z,100724.97
2023-04-10T00:17:50.743Z,100724.03
2023-04-10T00:20:17.802Z,100717.78
2023-04-10T00:22:44.822Z,100718.41
2023-04-10T00:25:11.681Z,100723.56
2023-04-10T00:27:38.928Z,100717.00
2023-04-10T00:30:06.746Z,100724.06
2023-04-10T00:32:33.752Z,100727.13
2023-04-10T00:35:01.591Z,100725.56
2023-04-10T00:37:29.897Z,100731.31
2023-04-10T00:39:56.912Z,100736.38
2023-04-10T00:42:23.880Z,100727.13
2023-04-10T00:44:50.829Z,100733.47
2023-04-10T00:47:17.853Z,100738.56
2023-04-10T00:49:44.922Z,100739.56
2023-04-10T00:52:12.455Z,100732.53
2023-04-10T00:54:39.677Z,100724.53
2023-04-10T00:57:06.561Z,100731.88
2023-04-10T00:59:33.500Z,100727.00
2023-04-10T01:02:00.953Z,100727.88
2023-04-10T01:04:29.228Z,100720.75
2023-04-10T01:07:03.721Z,100722.38
2023-04-10T01:09:56.757Z,100724.38
2023-04-10T01:12:42.605Z,100721.13
2023-04-10T01:15:28.422Z,100720.81
2023-04-10T01:18:19.595Z,100714.34
2023-04-10T01:20:46.541Z,100718.75
2023-04-10T01:23:19.414Z,100717.13
2023-04-10T01:25:59.306Z,100712.09
2023-04-10T01:29:00.651Z,100725.38
2023-04-10T01:31:51.299Z,100721.94
2023-04-10T01:34:27.666Z,100728.50
2023-04-10T01:37:01.022Z,100719.16
2023-04-10T01:39:28.586Z,100721.94
2023-04-10T01:41:56.809Z,100716.72
2023-04-10T01:44:34.759Z,100717.50
2023-04-10T01:47:01.622Z,100720.06
2023-04-10T01:49:28.940Z,100723.63
2023-04-10T01:52:02.518Z,100731.53
2023-04-10T01:54:30.846Z,100726.38
2023-04-10T01:56:59.525Z,100723.94
2023-04-10T01:59:27.391Z,100723.88
2023-04-10T02:01:58.200Z,100729.44
2023-04-10T02:04:26.757Z,100724.13
2023-04-10T02:07:13.333Z,100718.72
2023-04-10T02:10:03.728Z,100722.19
2023-04-10T02:12:57.578Z,100729.69
2023-04-10T02:15:24.946Z,100727.13
2023-04-10T02:17:51.996Z,100732.25
2023-04-10T02:20:19.116Z,100738.00
2023-04-10T02:22:46.630Z,100735.22
2023-04-10T02:25:13.614Z,100731.69
2023-04-10T02:27:40.721Z,100727.69
2023-04-10T02:30:08.222Z,100728.09
2023-04-10T02:32:37.136Z,100731.59
2023-04-10T02:35:08.227Z,100723.94
2023-04-10T02:37:37.347Z,100730.94
2023-04-10T02:40:04.921Z,100729.53
2023-04-10T02:42:41.612Z,100737.28
2023-04-10T02:45:09.565Z,100734.47
2023-04-10T02:47:40.348Z,100727.03
2023-04-10T02:50:07.558Z,100725.44
2023-04-10T02:52:37.560Z,100728.59
2023-04-10T02:55:05.281Z,100730.25
2023-04-10T02:57:36.397Z,100731.31
2023-04-10T03:00:05.308Z,100731.44
2023-04-10T03:02:53.748Z,100733.56
2023-04-10T03:05:27.136Z,100736.84
2023-04-10T03:07:54.366Z,100730.88
2023-04-10T03:10:21.354Z,100727.66
2023-04-10T03:12:48.861Z,100719.59
2023-04-10T03:15:16.408Z,100721.91
2023-04-10T03:17:43.310Z,100727.50
2023-04-10T03:20:11.223Z,100728.81
2023-04-10T03:22:38.179Z,100729.53
2023-04-10T03:25:06.590Z,100736.28
2023-04-10T03:27:35.092Z,100742.53
2023-04-10T03:30:05.502Z,100745.03
2023-04-10T03:32:39.273Z,100747.13
2023-04-10T03:35:07.413Z,100744.81
2023-04-10T03:37:34.386Z,100745.44
2023-04-10T03:40:01.274Z,100753.06
2023-04-10T03:42:30.604Z,100754.50
2023-04-10T03:44:58.254Z,100752.75
2023-04-10T03:47:25.180Z,100755.97
2023-04-10T03:49:52.987Z,100747.34
2023-04-10T03:52:19.962Z,100747.84
2023-04-10T03:54:47.350Z,100748.41
2023-04-10T03:57:23.891Z,100752.88
2023-04-10T03:59:54.330Z,100764.13
2023-04-10T04:02:21.486Z,100764.88
2023-04-10T04:04:48.885Z,100765.75
2023-04-10T04:07:41.458Z,100770.81
2023-04-10T04:10:20.609Z,100763.72
2023-04-10T04:13:00.851Z,100762.88
2023-04-10T04:15:50.982Z,100764.41
2023-04-10T04:18:34.304Z,100758.69
2023-04-10T04:21:21.481Z,100756.63
2023-04-10T04:24:08.419Z,100756.34
2023-04-10T04:27:10.724Z,100762.88
2023-04-10T04:29:50.448Z,100760.13
2023-04-10T04:32:26.541Z,100765.31
2023-04-10T04:35:13.703Z,100761.16
2023-04-10T04:38:06.839Z,100757.69
2023-04-10T04:40:58.731Z,100760.31
2023-04-10T04:43:44.689Z,100753.31
2023-04-10T04:46:47.310Z,100754.16
2023-04-10T04:49:32.717Z,100754.97
2023-04-10T04:52:23.743Z,100745.56
2023-04-10T04:55:04.525Z,100752.34
2023-04-10T04:57:51.705Z,100747.91
2023-04-10T05:00:25.812Z,100746.00
2023-04-10T05:02:53.128Z,100748.25
2023-04-10T05:05:29.198Z,100745.19
2023-04-10T05:08:10.980Z,100747.75
2023-04-10T05:10:57.942Z,100746.69
2023-04-10T05:13:40.561Z,100746.50
2023-04-10T05:16:22.013Z,100750.66
2023-04-10T05:19:14.944Z,100748.53
2023-04-10T05:22:05.143Z,100749.06
2023-04-10T05:24:44.911Z,100753.00
2023-04-10T05:27:21.443Z,100753.50
2023-04-10T05:30:07.427Z,100746.09
2023-04-10T05:32:37.389Z,100747.19
2023-04-10T05:35:22.863Z,100749.94
2023-04-10T05:38:00.847Z,100743.22
2023-04-10T05:40:38.638Z,100746.03
2023-04-10T05:43:41.193Z,100748.03
2023-04-10T06:00:20.228Z,100751.78
2023-04-10T06:03:05.523Z,100748.44
2023-04-10T06:05:35.002Z,100751.22
2023-04-10T06:08:05.405Z,100747.97
2023-04-10T06:10:32.844Z,100754.16
2023-04-10T06:12:59.910Z,100752.63
2023-04-10T06:15:26.898Z,100758.81
2023-04-10T06:17:54.251Z,100753.63
2023-04-10T06:20:21.602Z,100760.69
2023-04-10T06:22:50.649Z,100758.16
2023-04-10T06:25:17.787Z,100761.66
2023-04-10T06:27:44.706Z,100759.94
2023-04-10T06:30:11.948Z,100757.38
2023-04-10T06:32:39.092Z,100760.88
2023-04-10T06:35:06.427Z,100761.81
2023-04-10T06:37:33.345Z,100758.38
2023-04-10T06:40:13.113Z,100763.63
2023-04-10T06:42:41.281Z,100755.81
2023-04-10T06:45:22.615Z,100767.97
2023-04-10T06:47:49.610Z,100756.69
2023-04-10T06:50:16.533Z,100759.31
2023-04-10T06:52:44.987Z,100763.66
2023-04-10T06:55:13.067Z,100765.41
2023-04-10T06:57:40.498Z,100758.47
2023-04-10T07:00:08.086Z,100761.94
2023-04-10T07:02:35.539Z,100754.09
2023-04-10T07:05:02.596Z,100761.94
2023-04-10T07:07:30.157Z,100753.19
2023-04-10T07:09:58.035Z,100758.44
2023-04-10T07:12:25.160Z,100757.56
2023-04-10T07:14:52.161Z,100753.22
2023-04-10T07:17:19.038Z,100756.69
2023-04-10T07:19:46.012Z,100752.34
2023-04-10T07:22:13.213Z,100749.69
2023-04-10T07:24:40.337Z,100747.06
2023-04-10T07:27:07.281Z,100748.81
2023-04-10T07:29:34.366Z,100744.44
2023-04-10T07:32:01.533Z,100750.47
2023-04-10T07:34:29.025Z,100753.00
2023-04-10T07:36:56.019Z,100752.94
2023-04-10T07:39:23.106Z,100753.75
2023-04-10T07:41:50.164Z,100756.31
2023-04-10T07:44:17.694Z,100744.03
2023-04-10T07:46:44.640Z,100743.22
2023-04-10T07:49:12.169Z,100748.44
2023-04-10T07:51:39.166Z,100747.53
2023-04-10T07:54:06.226Z,100743.97
2023-04-10T07:56:33.122Z,100732.56
2023-04-10T07:59:01.021Z,100732.53
2023-04-10T08:01:28.849Z,100732.50
2023-04-10T08:03:58.993Z,100731.59
2023-04-10T08:06:26.052Z,100730.75
2023-04-10T08:08:54.968Z,100729.91
2023-04-10T08:11:27.856Z,100732.53
2023-04-10T08:13:55.878Z,100729.09
2023-04-10T08:16:29.870Z,100733.38
2023-04-10T08:18:57.773Z,100722.88
2023-04-10T08:21:26.842Z,100723.72
2023-04-10T08:23:54.415Z,100725.53
2023-04-10T08:26:21.552Z,100729.88
2023-04-10T08:28:50.673Z,100719.34
2023-04-10T08:31:18.649Z,100716.75
2023-04-10T08:33:45.820Z,100722.81
2023-04-10T08:36:13.030Z,100727.91
2023-04-10T08:38:40.094Z,100723.44
2023-04-10T08:41:07.286Z,100722.69
2023-04-10T08:43:35.507Z,100717.41
2023-04-10T08:46:02.712Z,100717.34
2023-04-10T08:49:00.433Z,100713.91
2023-04-10T08:51:32.400Z,100712.00
2023-04-10T08:54:04.838Z,100711.91
2023-04-10T08:56:31.956Z,100717.16
2023-04-10T08:58:58.879Z,100714.47
2023-04-10T09:01:26.040Z,100709.97
2023-04-10T09:03:53.164Z,100706.47
2023-04-10T09:06:20.470Z,100708.16
2023-04-10T09:08:47.557Z,100709.00
2023-04-10T09:11:14.595Z,100710.72
2023-04-10T09:13:43.275Z,100703.75
2023-04-10T09:16:11.065Z,100714.09
2023-04-10T09:18:45.107Z,100706.91
2023-04-10T09:21:14.277Z,100709.53
2023-04-10T09:23:42.514Z,100702.47
2023-04-10T09:26:28.504Z,100704.88
2023-04-10T09:29:05.795Z,100700.53
2023-04-10T09:31:36.374Z,100699.91
2023-04-10T09:34:09.304Z,100698.38
2023-04-10T09:36:37.491Z,100698.50
2023-04-10T09:39:05.424Z,100704.66
2023-04-10T09:41:32.483Z,100699.66
2023-04-10T09:44:09.545Z,100692.88
2023-04-10T09:46:36.588Z,100691.22
2023-04-10T09:49:05.297Z,100681.78
2023-04-10T09:51:33.974Z,100686.25
2023-04-10T09:54:01.553Z,100683.63
2023-04-10T09:56:29.578Z,100688.69
2023-04-10T09:58:58.410Z,100682.44
2023-04-10T10:01:28.896Z,100684.91
2023-04-10T10:03:56.423Z,100682.25
2023-04-10T10:06:23.644Z,100683.13
2023-04-10T10:08:50.673Z,100673.38
2023-04-10T10:11:24.657Z,100674.22
2023-04-10T10:13:55.004Z,100670.84
2023-04-10T10:16:29.632Z,100672.53
2023-04-10T10:19:22.247Z,100675.94
2023-04-10T10:21:49.207Z,100675.94
2023-04-10T10:24:16.145Z,100672.31
2023-04-10T10:26:43.053Z,100671.34
2023-04-10T10:29:10.986Z,100663.41
2023-04-10T10:31:38.165Z,100665.13
2023-04-10T10:34:05.520Z,100665.06
2023-04-10T10:36:32.542Z,100657.88
2023-04-10T10:39:38.769Z,100657.75
2023-04-10T10:42:09.638Z,100649.00
2023-04-10T10:44:59.382Z,100650.53
2023-04-10T10:47:30.557Z,100632.88
2023-04-10T10:50:01.976Z,100638.84
2023-04-10T10:52:49.914Z,100637.94
2023-04-10T10:55:25.825Z,100631.78
2023-04-10T10:57:53.647Z,100633.38
2023-04-10T11:00:21.364Z,100630.69
2023-04-10T11:03:13.357Z,100628.91
2023-04-10T11:05:57.384Z,100631.53
2023-04-10T11:08:33.560Z,100628.84
2023-04-10T11:11:07.412Z,100623.38
2023-04-10T11:13:41.209Z,100621.47
2023-04-10T11:16:12.501Z,100616.28
2023-04-10T11:18:45.666Z,100606.78
2023-04-10T11:21:13.127Z,100602.28
2023-04-10T11:24:00.628Z,100608.97
2023-04-10T11:26:33.708Z,100606.91
2023-04-10T11:29:21.145Z,100610.28
2023-04-10T11:31:57.738Z,100605.25
2023-04-10T11:34:24.797Z,100602.63
2023-04-10T11:36:53.355Z,100606.81
2023-04-10T11:39:20.668Z,100596.09
2023-04-10T11:41:51.764Z,100610.91
2023-04-10T11:44:29.965Z,100602.41
2023-04-10T11:46:58.108Z,100596.41
2023-04-10T11:49:32.900Z,100595.41
2023-04-10T11:52:00.111Z,100593.66
2023-04-10T11:54:28.042Z,100603.09
2023-04-10T11:57:00.206Z,100594.38
2023-04-10T11:59:27.484Z,100590.72
2023-04-10T12:02:15.268Z,100584.78
2023-04-10T12:04:45.721Z,100582.22
2023-04-10T12:07:12.737Z,100584.78
2023-04-10T12:09:40.685Z,100583.75
2023-04-10T12:12:08.326Z,100585.53
2023-04-10T12:14:40.038Z,100583.94
2023-04-10T12:17:08.107Z,100584.00
2023-04-10T12:19:35.394Z,100579.06
2023-04-10T12:22:03.109Z,100577.88
2023-04-10T12:24:46.903Z,100578.50
2023-04-10T12:27:21.002Z,100571.97
2023-04-10T12:29:48.750Z,100574.75
2023-04-10T12:32:15.775Z,100579.34
2023-04-10T12:34:42.700Z,100575.22
2023-04-10T12:37:12.440Z,100583.25
2023-04-10T12:39:39.463Z,100578.16
2023-04-10T12:42:20.863Z,100577.44
2023-04-10T12:44:57.436Z,100578.50
2023-04-10T12:47:25.340Z,100566.50
2023-04-10T12:50:11.781Z,100563.31
2023-04-10T12:52:44.895Z,100562.53
2023-04-10T12:55:14.621Z,100565.28
2023-04-10T12:57:42.281Z,100567.13
2023-04-10T13:00:11.100Z,100565.53
2023-04-10T13:02:38.555Z,100564.84
2023-04-10T13:05:06.466Z,100569.41
2023-04-10T13:07:33.563Z,100567.78
2023-04-10T13:10:00.689Z,100562.66
2023-04-10T13:12:28.959Z,100573.16
2023-04-10T13:14:56.279Z,100568.88
2023-04-10T13:17:25.887Z,100568.03
2023-04-10T13:19:52.982Z,100566.31
2023-04-10T13:22:20.287Z,100571.56
2023-04-10T13:24:47.349Z,100579.41
2023-04-10T13:27:14.338Z,100581.13
2023-04-10T13:29:42.061Z,100576.78
2023-04-10T13:32:09.051Z,100582.91
2023-04-10T13:34:36.154Z,100577.69
2023-04-10T13:37:03.154Z,100576.88
2023-04-10T13:39:31.210Z,100569.91
2023-04-10T13:41:59.056Z,100566.44
2023-04-10T13:44:26.085Z,100566.47
2023-04-10T13:46:53.279Z,100569.03
2023-04-10T13:49:22.016Z,100576.84
2023-04-10T13:51:49.207Z,100582.91
2023-04-10T13:54:20.136Z,100579.41
2023-04-10T13:56:47.346Z,100582.03
2023-04-10T13:59:14.460Z,100575.97
2023-04-10T14:01:41.464Z,100590.69
2023-04-10T14:04:08.524Z,100582.00
2023-04-10T14:06:35.743Z,100582.88
2023-04-10T14:09:02.811Z,100582.84
2023-04-10T14:11:29.765Z,100582.84
2023-04-10T14:13:56.749Z,100586.31
2023-04-10T14:16:23.829Z,100578.47
2023-04-10T14:18:50.811Z,100590.59
2023-04-10T14:21:19.433Z,100586.25
2023-04-10T14:23:47.837Z,100593.19
2023-04-10T14:26:14.787Z,100585.38
2023-04-10T14:28:42.522Z,100577.56
2023-04-10T14:31:09.597Z,100575.78
2023-04-10T14:33:36.622Z,100574.91
2023-04-10T14:36:03.776Z,100575.72
2023-04-10T14:38:30.779Z,100580.91
2023-04-10T14:40:57.841Z,100574.81
2023-04-10T14:43:24.735Z,100574.78
2023-04-10T14:45:51.687Z,100574.78
2023-04-10T14:48:19.956Z,100573.06
2023-04-10T14:50:48.337Z,100579.13
2023-04-10T14:53:15.721Z,100583.44
2023-04-10T14:55:42.740Z,100577.34
2023-04-10T14:58:11.171Z,100571.25
2023-04-10T15:00:38.278Z,100579.88
2023-04-10T15:03:06.457Z,100581.63
2023-04-10T15:05:33.657Z,100574.72
2023-04-10T15:08:00.782Z,100573.00
2023-04-10T15:10:30.898Z,100578.19
2023-04-10T15:12:58.025Z,100579.91
2023-04-10T15:15:24.953Z,100576.34
2023-04-10T15:17:51.951Z,100577.97
2023-04-10T15:20:19.066Z,100572.63
2023-04-10T15:22:48.241Z,100563.03
2023-04-10T15:25:15.316Z,100570.75
2023-04-10T15:27:42.410Z,100565.47
2023-04-10T15:30:09.684Z,100561.94
2023-04-10T15:32:39.536Z,100570.53
2023-04-10T15:35:07.051Z,100567.88
2023-04-10T15:37:35.201Z,100562.56
2023-04-10T15:40:04.477Z,100563.38
2023-04-10T15:42:31.415Z,100562.50
2023-04-10T15:44:58.405Z,100564.22
2023-04-10T15:47:25.436Z,100561.56
2023-04-10T15:49:52.391Z,100568.41
2023-04-10T15:52:19.428Z,100558.84
2023-04-10T15:54:46.365Z,100560.50
2023-04-10T15:57:13.474Z,100555.22
2023-04-10T15:59:40.482Z,100559.56
2023-04-10T16:02:07.497Z,100558.59
2023-04-10T16:04:38.353Z,100555.06
2023-04-10T16:07:05.440Z,100553.31
2023-04-10T16:12:26.670Z,100556.72
2023-04-10T16:17:44.752Z,100546.22
2023-04-10T16:20:13.493Z,100547.94
2023-04-10T16:22:40.714Z,100549.66
2023-04-10T16:25:09.040Z,100547.06
2023-04-10T16:27:36.095Z,100546.19
2023-04-10T16:30:03.551Z,100544.44
2023-04-10T16:32:31.839Z,100547.03
2023-04-10T16:34:59.202Z,100542.66
2023-04-10T16:37:26.237Z,100540.03
2023-04-10T16:39:53.307Z,100546.91
2023-04-10T16:42:20.305Z,100539.88
2023-04-10T16:44:47.408Z,100536.34
2023-04-10T16:47:14.348Z,100536.22
2023-04-10T16:49:45.732Z,100528.41
2023-04-10T16:52:13.133Z,100532.59
2023-04-10T16:54:40.639Z,100531.56
2023-04-10T16:57:07.583Z,100532.25
2023-04-10T16:59:34.503Z,100526.94
2023-04-10T17:02:01.581Z,100518.19
2023-04-10T17:04:29.021Z,100525.84
2023-04-10T17:06:56.118Z,100524.06
2023-04-10T17:09:23.161Z,100523.13
2023-04-10T17:11:53.174Z,100519.66
2023-04-10T17:14:20.323Z,100522.22
2023-04-10T17:16:47.367Z,100515.28
2023-04-10T17:19:14.916Z,100517.88
2023-04-10T17:21:41.891Z,100519.56
2023-04-10T17:24:09.146Z,100514.34
2023-04-10T17:26:36.151Z,100516.88
2023-04-10T17:29:03.253Z,100517.72
2023-04-10T17:31:31.390Z,100515.94
2023-04-10T17:33:58.856Z,100520.28
2023-04-10T17:36:26.958Z,100520.25
2023-04-10T17:38:54.317Z,100521.16
2023-04-10T17:41:21.357Z,100525.53
2023-04-10T17:43:48.685Z,100516.19
2023-04-10T17:46:15.885Z,100520.56
2023-04-10T17:48:43.736Z,100515.44
2023-04-10T17:51:10.966Z,100523.22
2023-04-10T17:53:37.897Z,100521.38
2023-04-10T17:56:05.253Z,100517.09
2023-04-10T17:58:32.299Z,100517.19
2023-04-10T18:00:59.377Z,100512.88
2023-04-10T18:03:26.414Z,100517.25
2023-04-10T18:05:53.619Z,100517.28
2023-04-10T18:08:20.560Z,100512.09
2023-04-10T18:10:48.595Z,100514.59
2023-04-10T18:13:15.731Z,100517.88
2023-04-10T18:15:42.928Z,100514.34
2023-04-10T18:18:10.088Z,100516.03
2023-04-10T18:20:37.169Z,100517.66
2023-04-10T18:23:04.679Z,100509.84
2023-04-10T18:25:31.789Z,100513.34
2023-04-10T18:28:13.749Z,100510.75
2023-04-10T18:30:41.920Z,100504.66
2023-04-10T18:33:10.926Z,100513.13
2023-04-10T18:35:38.523Z,100516.38
2023-04-10T18:38:05.548Z,100519.84
2023-04-10T18:40:34.608Z,100518.97
2023-04-10T18:43:01.632Z,100512.97
2023-04-10T18:45:28.672Z,100514.69
2023-04-10T18:47:55.675Z,100510.41
2023-04-10T18:50:28.513Z,100507.06
2023-04-10T18:52:55.455Z,100506.25
2023-04-10T18:55:22.449Z,100505.41
2023-04-10T18:57:49.316Z,100506.16
2023-04-10T19:00:16.409Z,100504.25
2023-04-10T19:02:43.755Z,100508.44
2023-04-10T19:05:14.309Z,100507.56
2023-04-10T19:07:47.237Z,100499.69
2023-04-10T19:10:20.160Z,100501.31
2023-04-10T19:12:48.178Z,100497.94
2023-04-10T19:15:15.375Z,100501.44
2023-04-10T19:17:42.284Z,100500.63
2023-04-10T19:20:09.791Z,100501.50
2023-04-10T19:22:36.815Z,100502.38
2023-04-10T19:25:04.009Z,100508.50
2023-04-10T19:27:30.972Z,100492.19
2023-04-10T19:29:57.852Z,100492.25
2023-04-10T19:32:24.893Z,100499.13
2023-04-10T19:34:53.383Z,100503.41
2023-04-10T19:37:23.291Z,100492.16
2023-04-10T19:39:50.199Z,100489.63
2023-04-10T19:42:17.223Z,100495.69
2023-04-10T19:44:44.164Z,100498.28
2023-04-10T19:47:11.034Z,100491.38
2023-04-10T19:49:38.071Z,100490.47
2023-04-10T19:52:05.098Z,100489.63
2023-04-10T19:54:32.017Z,100483.53
2023-04-10T19:56:59.042Z,100483.44
2023-04-10T19:59:25.978Z,100489.34
2023-04-10T20:01:53.104Z,100491.81
2023-04-10T20:04:20.284Z,100490.03
2023-04-10T20:06:47.916Z,100488.28
2023-04-10T20:09:18.034Z,100492.66
2023-04-10T20:11:45.050Z,100490.03
2023-04-10T20:14:12.151Z,100486.53
2023-04-10T20:16:41.041Z,100493.38
2023-04-10T20:19:08.137Z,100488.19
2023-04-10T20:21:35.341Z,100495.94
2023-04-10T20:24:02.256Z,100492.50
2023-04-10T20:26:29.285Z,100488.91
2023-04-10T20:28:56.593Z,100496.41
2023-04-10T20:31:23.774Z,100495.41
2023-04-10T20:33:50.830Z,100499.69
2023-04-10T20:36:18.192Z,100497.03
2023-04-10T20:38:45.108Z,100494.34
2023-04-10T20:41:12.182Z,100492.59
2023-04-10T20:43:39.104Z,100493.50
2023-04-10T20:46:07.582Z,100495.25
2023-04-10T20:48:35.709Z,100499.50
2023-04-10T20:51:02.657Z,100493.44
2023-04-10T20:53:30.114Z,100496.00
2023-04-10T20:55:57.011Z,100507.31
2023-04-10T20:58:23.986Z,100501.31
2023-04-10T21:00:52.714Z,100492.78
2023-04-10T21:03:20.086Z,100498.72
2023-04-10T21:05:47.132Z,100496.03
2023-04-10T21:08:14.939Z,100496.88
2023-04-10T21:10:44.645Z,100495.16
2023-04-10T21:13:14.569Z,100502.06
2023-04-10T21:15:42.357Z,100499.44
2023-04-10T21:18:09.359Z,100502.91
2023-04-10T21:20:36.429Z,100497.69
2023-04-10T21:23:03.469Z,100501.06
2023-04-10T21:25:31.121Z,100497.63
2023-04-10T21:27:57.983Z,100503.72
2023-04-10T21:30:24.966Z,100497.75
2023-04-10T21:32:51.840Z,100494.41
2023-04-10T21:35:18.873Z,100495.22
2023-04-10T21:37:45.996Z,100495.28
2023-04-10T21:40:13.042Z,100498.78
2023-04-10T21:42:39.980Z,100503.13
2023-04-10T21:45:07.538Z,100502.34
2023-04-10T21:47:34.472Z,100493.75
2023-04-10T21:50:01.457Z,100492.91
2023-04-10T21:52:28.472Z,100486.78
2023-04-10T21:54:55.467Z,100497.03
2023-04-10T21:57:22.484Z,100490.16
2023-04-10T21:59:49.425Z,100492.66
2023-04-10T22:02:16.573Z,100488.41
2023-04-10T22:04:53.895Z,100490.19
2023-04-10T22:07:21.563Z,100478.13
2023-04-10T22:09:48.514Z,100487.59
2023-04-10T22:12:15.578Z,100480.72
2023-04-10T22:14:42.556Z,100481.59
2023-04-10T22:17:09.614Z,100483.34
2023-04-10T22:19:36.759Z,100484.06
2023-04-10T22:22:03.645Z,100484.97
2023-04-10T22:24:33.866Z,100477.22
2023-04-10T22:27:02.126Z,100477.03
2023-04-10T22:29:29.071Z,100477.72
2023-04-10T22:31:56.202Z,100483.69
2023-04-10T22:34:23.129Z,100472.53
2023-04-10T22:36:51.977Z,100471.78
2023-04-10T22:39:19.084Z,100468.44
2023-04-10T22:41:46.243Z,100467.59
2023-04-10T22:44:13.177Z,100470.97
2023-04-10T22:46:40.202Z,100469.28
2023-04-10T22:49:07.140Z,100457.25
2023-04-10T22:51:37.182Z,100470.13
2023-04-10T22:54:04.089Z,100458.94
2023-04-10T22:56:31.844Z,100455.47
2023-04-10T22:58:58.802Z,100453.72
2023-04-10T23:01:25.988Z,100455.41
2023-04-10T23:03:53.991Z,100461.47
2023-04-10T23:06:21.227Z,100454.56
2023-04-10T23:08:48.246Z,100463.97
2023-04-10T23:11:15.087Z,100454.50
2023-04-10T23:13:42.758Z,100452.81
2023-04-10T23:16:10.121Z,100451.94
2023-04-10T23:18:37.575Z,100451.16
2023-04-10T23:21:06.637Z,100453.78
2023-04-10T23:23:33.754Z,100448.63
2023-04-10T23:26:00.983Z,100447.78
2023-04-10T23:28:28.079Z,100452.00
2023-04-10T23:30:55.123Z,100454.63
2023-04-10T23:33:22.373Z,100459.75
2023-04-10T23:35:49.295Z,100451.06
2023-04-10T23:38:16.413Z,100456.16
2023-04-10T23:40:43.416Z,100453.53
2023-04-10T23:43:10.582Z,100454.31
2023-04-10T23:45:37.509Z,100442.09
2023-04-10T23:48:04.488Z,100453.06
2023-04-10T23:50:31.570Z,100447.88
2023-04-10T23:53:00.047Z,100452.97
2023-04-10T23:55:27.234Z,100452.09
2023-04-10T23:57:54.087Z,100453.00
